Terminal Aerodrome Forecast
Issued by NWS Knoxville/Tri Cities, TN

Home | Current Version | Previous Version | Text Only | Print | Product List | Glossary On
Versions: 1 2 3 4 5 6 7 8 9 10 11 12 13 14 15 16 17 18 19 20 21 22 23 24 25 26 27 28 29 30 31 32 33 34 35 36 37 38 39 40 41 42 43 44 45 46 47 48
000
FTUS44 KMRX 291412 AAA
TAFCHA
TAF AMD
KCHA 291412Z 2914/3012 VRB03KT 5SM BR BKN015 BKN040
     FM291600 16005KT P6SM VCSH SCT020 BKN040 OVC120
     FM291900 16007KT P6SM VCTS BKN035CB OVC100
     FM300000 VRB03KT P6SM SCT040 BKN120
     FM300600 00000KT P6SM BKN250=

USA.gov is the U.S. government's official web portal to all federal, state and local government web resources and services.